Time;durP1;ratioP1;P1;durP2;ratioP2;P2;SDS_P1;SDS_P2;PMS_P1;PMS_P2;Temp;Humidity;BMP_temperature;BMP_pressure;BME280_temperature;BME280_humidity;BME280_pressure;Samples;Min_cycle;Max_cycle;Signal;HPM_P1;HPM_P2
2022/03/20 00:01:02;;;;;;;13.57;3.70;;;8.40;99.90;;;;;;5030883;28;20232;-82
2022/03/20 00:06:49;;;;;;;13.30;3.77;;;8.30;99.90;;;;;;4999303;28;20236;-82
2022/03/20 00:09:15;;;;;;;13.33;3.80;;;8.30;99.90;;;;;;4993509;28;20625;-82
2022/03/20 00:11:40;;;;;;;13.27;3.67;;;8.30;99.90;;;;;;5003096;28;20598;-80
2022/03/20 00:14:06;;;;;;;13.43;3.13;;;8.30;99.90;;;;;;4989408;28;20179;-83
2022/03/20 00:16:32;;;;;;;15.97;3.40;;;8.30;99.90;;;;;;4989538;28;20183;-82
2022/03/20 00:18:58;;;;;;;15.47;3.47;;;8.30;99.90;;;;;;4989588;28;20188;-83
2022/03/20 00:21:24;;;;;;;14.60;4.07;;;8.30;99.90;;;;;;4989344;28;20183;-83
2022/03/20 00:23:49;;;;;;;14.03;3.57;;;9.00;99.90;;;;;;4989511;28;20202;-82
2022/03/20 00:26:18;;;;;;;15.70;3.30;;;8.30;99.90;;;;;;4989424;28;20187;-82
2022/03/20 00:28:44;;;;;;;19.73;3.73;;;8.40;99.90;;;;;;4989320;28;20219;-83
2022/03/20 00:31:10;;;;;;;16.73;3.43;;;8.30;99.90;;;;;;4990321;28;20171;-82
2022/03/20 00:33:36;;;;;;;16.20;3.40;;;8.30;99.90;;;;;;4996432;28;20239;-82
2022/03/20 00:36:02;;;;;;;14.90;3.90;;;8.20;99.90;;;;;;5016718;28;20201;-81
2022/03/20 00:38:28;;;;;;;11.20;3.40;;;8.20;99.90;;;;;;5034598;28;20564;-84
2022/03/20 00:40:54;;;;;;;15.20;3.33;;;8.20;99.90;;;;;;5034623;28;20174;-83
2022/03/20 00:43:20;;;;;;;12.50;3.73;;;8.20;99.90;;;;;;5034352;28;20177;-82
2022/03/20 00:45:46;;;;;;;14.47;3.90;;;8.20;99.90;;;;;;5034547;28;20167;-81
2022/03/20 00:48:12;;;;;;;15.30;3.20;;;8.10;99.90;;;;;;5034148;28;20259;-82
2022/03/20 00:50:38;;;;;;;12.83;3.20;;;8.10;99.90;;;;;;5016301;28;20182;-81
2022/03/20 00:53:04;;;;;;;17.07;3.57;;;8.10;99.90;;;;;;5034242;28;20174;-81
2022/03/20 00:55:30;;;;;;;17.83;3.23;;;8.10;99.90;;;;;;5034288;28;20233;-80
2022/03/20 00:57:57;;;;;;;17.60;3.50;;;8.00;99.90;;;;;;5036429;28;20170;-78
2022/03/20 01:00:22;;;;;;;12.70;3.23;;;8.00;99.90;;;;;;5034073;28;20181;-78
2022/03/20 01:02:48;;;;;;;14.33;3.80;;;8.00;99.90;;;;;;5034103;28;20170;-78
2022/03/20 01:05:14;;;;;;;14.03;3.87;;;7.90;99.90;;;;;;5032732;28;20184;-78
2022/03/20 01:07:40;;;;;;;17.63;4.30;;;7.90;99.90;;;;;;5033612;28;20189;-77
2022/03/20 01:10:07;;;;;;;16.17;4.03;;;7.90;99.90;;;;;;5033790;28;20217;-77
2022/03/20 01:12:34;;;;;;;13.00;3.20;;;7.80;99.90;;;;;;5033904;28;20174;-79
2022/03/20 01:15:06;;;;;;;13.20;3.43;;;7.80;99.90;;;;;;5049074;28;20185;-75
2022/03/20 01:17:32;;;;;;;17.03;3.63;;;7.80;99.90;;;;;;5033564;28;20218;-75
2022/03/20 01:19:57;;;;;;;18.43;3.83;;;7.70;99.90;;;;;;5033848;28;20185;-75
2022/03/20 01:22:23;;;;;;;16.07;3.90;;;7.80;99.90;;;;;;5033547;28;20645;-75
2022/03/20 01:24:49;;;;;;;13.10;3.43;;;7.70;99.90;;;;;;5033632;28;20184;-75
2022/03/20 01:27:15;;;;;;;11.53;3.30;;;7.70;99.90;;;;;;5033121;28;20269;-75
2022/03/20 01:29:41;;;;;;;18.37;4.27;;;7.70;99.90;;;;;;5033520;28;20214;-75
2022/03/20 01:32:08;;;;;;;17.37;3.90;;;7.60;99.90;;;;;;5033401;28;20170;-76
2022/03/20 01:34:34;;;;;;;14.70;3.67;;;7.60;99.90;;;;;;5033271;28;20319;-79
2022/03/20 01:37:00;;;;;;;14.67;3.30;;;7.50;99.90;;;;;;5033247;28;20257;-79
2022/03/20 01:39:25;;;;;;;16.07;3.47;;;7.50;99.90;;;;;;5033209;28;20174;-79
2022/03/20 01:41:51;;;;;;;15.37;3.40;;;7.40;99.90;;;;;;5033170;28;20174;-66
2022/03/20 01:44:17;;;;;;;15.73;3.90;;;7.40;99.90;;;;;;5033141;28;20660;-82
2022/03/20 01:50:06;;;;;;;11.40;3.30;;;7.40;99.90;;;;;;5021941;28;20240;-75
2022/03/20 01:52:33;;;;;;;17.47;3.70;;;7.30;99.90;;;;;;5032969;28;20223;-76
2022/03/20 01:54:59;;;;;;;18.53;3.47;;;7.30;99.90;;;;;;5032903;28;20221;-76
2022/03/20 01:57:26;;;;;;;16.57;3.30;;;7.30;99.90;;;;;;5033116;28;20181;-79
2022/03/20 01:59:52;;;;;;;13.50;3.90;;;7.20;99.90;;;;;;5032867;28;20261;-76
2022/03/20 02:02:19;;;;;;;15.20;3.57;;;7.10;99.90;;;;;;5032447;28;20162;-77
2022/03/20 02:04:45;;;;;;;16.63;3.60;;;7.10;99.90;;;;;;5032667;28;20166;-76
2022/03/20 02:07:12;;;;;;;16.97;3.73;;;7.10;99.90;;;;;;5035566;28;20195;-75
2022/03/20 02:09:40;;;;;;;16.23;3.67;;;7.10;99.90;;;;;;5032722;28;20217;-75
2022/03/20 02:12:06;;;;;;;12.17;3.53;;;7.10;99.90;;;;;;5032366;28;20178;-76
2022/03/20 02:14:33;;;;;;;23.97;3.30;;;7.10;99.90;;;;;;5032667;28;20178;-76
2022/03/20 02:17:00;;;;;;;16.30;3.53;;;7.00;99.90;;;;;;5032614;28;20178;-76
2022/03/20 02:19:27;;;;;;;19.93;3.83;;;6.90;99.90;;;;;;5032513;28;20184;-76
2022/03/20 02:21:52;;;;;;;20.17;3.17;;;6.90;99.90;;;;;;5032408;28;20177;-76
2022/03/20 02:24:36;;;;;;;12.87;3.20;;;6.90;99.90;;;;;;5032662;28;20531;-76
2022/03/20 02:27:09;;;;;;;11.33;3.50;;;6.90;99.90;;;;;;5032219;28;20235;-76
2022/03/20 02:29:36;;;;;;;14.93;3.80;;;6.90;99.90;;;;;;5032117;28;20213;-75
2022/03/20 02:32:04;;;;;;;12.93;3.10;;;6.90;99.90;;;;;;5032119;28;20206;-74
2022/03/20 02:34:31;;;;;;;12.90;3.00;;;6.90;99.90;;;;;;5031970;28;20177;-77
2022/03/20 02:36:58;;;;;;;14.63;3.60;;;6.90;99.90;;;;;;5014773;28;20170;-77
2022/03/20 02:39:24;;;;;;;13.30;3.27;;;6.70;99.90;;;;;;5032066;28;20182;-81
2022/03/20 02:41:51;;;;;;;14.17;3.50;;;6.80;99.90;;;;;;5014840;28;20174;-80
2022/03/20 02:44:18;;;;;;;13.70;3.53;;;6.80;99.90;;;;;;5032481;28;20182;-79
2022/03/20 02:46:44;;;;;;;14.50;3.13;;;6.90;99.90;;;;;;5034944;28;20172;-80
2022/03/20 02:49:10;;;;;;;22.07;3.40;;;6.80;99.90;;;;;;5031925;28;20570;-79
2022/03/20 02:51:36;;;;;;;17.07;3.03;;;6.80;99.90;;;;;;5032077;28;20199;-80
2022/03/20 02:54:03;;;;;;;12.47;2.70;;;6.80;99.90;;;;;;5030025;28;20324;-80
2022/03/20 02:56:29;;;;;;;14.93;3.33;;;6.70;99.90;;;;;;5032098;28;20181;-82
2022/03/20 02:58:55;;;;;;;9.77;2.73;;;6.80;99.90;;;;;;5030858;28;20177;-81
2022/03/20 03:01:21;;;;;;;17.30;3.13;;;6.70;99.90;;;;;;5031802;28;20213;-82
2022/03/20 03:03:47;;;;;;;12.83;2.87;;;6.70;99.90;;;;;;5031783;28;20170;-82
2022/03/20 03:06:13;;;;;;;12.17;2.97;;;6.70;99.90;;;;;;5031678;28;20173;-81
2022/03/20 03:11:23;;;;;;;15.03;2.80;;;6.70;99.90;;;;;;5031848;28;20180;-83
2022/03/20 03:13:49;;;;;;;16.93;2.90;;;6.80;99.90;;;;;;5031742;28;20165;-83
2022/03/20 03:16:16;;;;;;;13.77;3.30;;;6.70;99.90;;;;;;5031712;28;20174;-83
2022/03/20 03:18:44;;;;;;;18.60;3.13;;;6.70;99.90;;;;;;5031758;28;20235;-81
2022/03/20 03:21:15;;;;;;;14.20;3.13;;;6.60;99.90;;;;;;5031539;28;20166;-82
2022/03/20 03:23:41;;;;;;;14.67;3.40;;;6.60;99.90;;;;;;5013919;28;20201;-82
2022/03/20 03:26:07;;;;;;;14.40;2.70;;;6.60;99.90;;;;;;5031376;28;20682;-82
2022/03/20 03:28:34;;;;;;;8.23;3.00;;;6.60;99.90;;;;;;5031158;28;20612;-81
2022/03/20 03:31:02;;;;;;;14.00;2.80;;;6.60;99.90;;;;;;5031432;28;20279;-79
2022/03/20 03:33:28;;;;;;;11.10;2.90;;;6.60;99.90;;;;;;5031146;28;20184;-78
2022/03/20 03:35:54;;;;;;;13.73;2.87;;;6.60;99.90;;;;;;5031161;28;20261;-78
2022/03/20 03:38:34;;;;;;;9.60;2.67;;;6.50;99.90;;;;;;5031160;28;20178;-77
2022/03/20 03:41:00;;;;;;;10.77;3.27;;;6.60;99.90;;;;;;5031143;28;20183;-77
2022/03/20 03:43:26;;;;;;;15.90;2.90;;;6.50;99.90;;;;;;5031240;28;20173;-77
2022/03/20 03:45:53;;;;;;;9.97;3.00;;;6.40;99.90;;;;;;5030981;28;20213;-77
2022/03/20 03:48:19;;;;;;;27.67;3.43;;;6.50;99.90;;;;;;5030893;28;20661;-76
2022/03/20 03:50:47;;;;;;;15.03;3.10;;;6.40;99.90;;;;;;5032611;28;20172;-76
2022/03/20 03:53:13;;;;;;;13.27;3.07;;;6.40;99.90;;;;;;5030871;28;20192;-75
2022/03/20 03:55:43;;;;;;;16.80;2.60;;;6.40;99.90;;;;;;5030617;28;20684;-75
2022/03/20 03:58:13;;;;;;;12.30;2.97;;;6.40;99.90;;;;;;5030838;28;20181;-76
2022/03/20 04:00:39;;;;;;;12.03;3.23;;;6.40;99.90;;;;;;5030945;28;20223;-76
2022/03/20 04:03:05;;;;;;;11.70;3.17;;;6.40;99.90;;;;;;5031443;28;20178;-85
2022/03/20 04:05:31;;;;;;;15.53;2.97;;;6.30;99.90;;;;;;5031317;28;20181;-85
2022/03/20 04:07:57;;;;;;;9.80;3.20;;;6.30;99.90;;;;;;5031387;28;20727;-84
2022/03/20 04:10:24;;;;;;;9.37;2.67;;;6.30;99.90;;;;;;5033845;28;20750;-86
2022/03/20 04:12:50;;;;;;;10.13;2.90;;;6.40;99.90;;;;;;5035507;28;20174;-84
2022/03/20 04:15:21;;;;;;;11.33;3.17;;;6.20;99.90;;;;;;5036430;28;20178;-83
2022/03/20 04:17:47;;;;;;;9.17;2.80;;;6.10;99.90;;;;;;5035460;28;20177;-85
2022/03/20 04:20:13;;;;;;;11.33;2.57;;;6.10;99.90;;;;;;5035166;28;20232;-84
2022/03/20 04:23:42;;;;;;;14.90;3.00;;;6.10;99.90;;;;;;5035650;28;20232;-85
2022/03/20 04:25:27;;;;;;;8.93;2.83;;;6.10;99.90;;;;;;5035571;28;20180;-86
2022/03/20 04:27:56;;;;;;;9.63;2.60;;;6.10;99.90;;;;;;5035840;28;20182;-86
2022/03/20 04:30:25;;;;;;;10.10;2.80;;;6.00;99.90;;;;;;5035010;28;20937;-84
2022/03/20 04:32:54;;;;;;;14.27;3.10;;;6.00;99.90;;;;;;5035195;28;20174;-85
2022/03/20 04:35:24;;;;;;;12.43;2.63;;;6.00;99.90;;;;;;5035230;28;20174;-82
2022/03/20 04:37:54;;;;;;;11.97;3.07;;;5.90;99.90;;;;;;5037380;28;20674;-83
2022/03/20 04:40:20;;;;;;;12.27;2.50;;;5.90;99.90;;;;;;5056454;28;20224;-84
2022/03/20 04:42:47;;;;;;;9.80;2.63;;;5.90;99.90;;;;;;5042522;28;20170;-79
2022/03/20 04:45:13;;;;;;;20.17;3.00;;;5.90;99.90;;;;;;5035605;28;20170;-80
2022/03/20 04:58:36;;;;;;;11.40;2.37;;;5.80;99.90;;;;;;5056144;28;20544;-79
2022/03/20 05:01:02;;;;;;;11.17;3.33;;;5.80;99.90;;;;;;5056507;28;20174;-80
2022/03/20 05:03:31;;;;;;;8.10;2.20;;;5.80;99.90;;;;;;5055831;28;20209;-81
2022/03/20 05:05:57;;;;;;;14.93;2.70;;;5.80;99.90;;;;;;5035049;28;20227;-81
2022/03/20 05:08:23;;;;;;;14.60;2.77;;;5.80;99.90;;;;;;5034452;28;20170;-82
2022/03/20 05:13:34;;;;;;;9.17;3.03;;;5.70;99.90;;;;;;5034230;28;20239;-81
2022/03/20 05:15:59;;;;;;;11.37;2.60;;;5.60;99.90;;;;;;5035290;28;20177;-83
2022/03/20 05:18:25;;;;;;;14.70;2.37;;;5.60;99.90;;;;;;5034835;28;20163;-80
2022/03/20 05:20:52;;;;;;;11.63;2.50;;;5.60;99.90;;;;;;5033245;28;20714;-79
2022/03/20 05:23:19;;;;;;;7.67;2.43;;;5.70;99.90;;;;;;5033444;28;20170;-79
2022/03/20 05:25:45;;;;;;;12.20;2.60;;;5.50;99.90;;;;;;5033440;28;20255;-79
2022/03/20 05:28:11;;;;;;;10.20;2.70;;;5.50;99.90;;;;;;5033636;28;20202;-79
2022/03/20 05:30:37;;;;;;;15.73;2.67;;;5.40;99.90;;;;;;5034627;28;20755;-80
2022/03/20 05:33:03;;;;;;;8.27;2.27;;;5.40;99.90;;;;;;5034352;28;20208;-80
2022/03/20 05:35:29;;;;;;;21.47;3.10;;;5.40;99.90;;;;;;5033759;28;20265;-80
2022/03/20 05:37:55;;;;;;;13.47;2.53;;;5.30;99.90;;;;;;5033615;28;20695;-79
2022/03/20 05:40:20;;;;;;;16.27;2.93;;;5.20;99.90;;;;;;5033328;28;20681;-80
2022/03/20 05:42:46;;;;;;;15.30;2.90;;;5.20;99.90;;;;;;5033004;28;20212;-79
2022/03/20 05:45:12;;;;;;;11.07;2.50;;;5.10;99.90;;;;;;5033334;28;20282;-79
2022/03/20 05:47:40;;;;;;;11.47;2.60;;;5.10;99.90;;;;;;5032991;28;20178;-78
2022/03/20 05:50:07;;;;;;;13.97;2.90;;;5.10;99.90;;;;;;5033030;28;20357;-64
2022/03/20 05:52:33;;;;;;;7.37;2.27;;;5.10;99.90;;;;;;5032631;28;20189;-75
2022/03/20 05:55:00;;;;;;;14.73;2.80;;;5.00;99.90;;;;;;5033477;28;20221;-79
2022/03/20 06:00:19;;;;;;;10.30;2.50;;;5.00;99.90;;;;;;5032989;28;20184;-80
2022/03/20 06:02:45;;;;;;;12.10;2.60;;;5.00;99.90;;;;;;5032570;28;20181;-80
2022/03/20 06:05:12;;;;;;;11.47;2.90;;;5.00;99.90;;;;;;5033195;28;20170;-80
2022/03/20 06:07:43;;;;;;;12.10;3.20;;;4.90;99.90;;;;;;5032832;28;20184;-80
2022/03/20 06:10:12;;;;;;;14.97;2.60;;;4.90;99.90;;;;;;5032609;28;20302;-81
2022/03/20 06:12:38;;;;;;;9.33;2.43;;;4.90;99.90;;;;;;5032462;28;20643;-81
2022/03/20 06:15:08;;;;;;;13.87;2.93;;;4.80;99.90;;;;;;5032838;28;20181;-80
2022/03/20 06:17:40;;;;;;;17.50;3.13;;;4.90;99.90;;;;;;5032870;28;20178;-78
2022/03/20 06:20:07;;;;;;;14.27;2.87;;;4.90;99.90;;;;;;5032864;28;20236;-79
2022/03/20 06:22:34;;;;;;;11.03;2.80;;;4.90;99.90;;;;;;5032880;28;20250;-78
2022/03/20 06:25:03;;;;;;;17.80;2.80;;;4.90;99.90;;;;;;5041571;28;20215;-78
2022/03/20 06:27:29;;;;;;;12.23;2.70;;;4.90;99.90;;;;;;5032919;28;20175;-79
2022/03/20 06:29:55;;;;;;;13.13;2.60;;;4.90;99.90;;;;;;5032192;28;20250;-79
2022/03/20 06:32:23;;;;;;;12.67;2.50;;;4.90;99.90;;;;;;5031847;28;20531;-80
2022/03/20 06:35:08;;;;;;;6.33;2.40;;;4.90;99.90;;;;;;5032013;28;20640;-80
2022/03/20 06:37:45;;;;;;;11.53;2.97;;;5.00;99.90;;;;;;5031946;28;20181;-79
2022/03/20 06:40:13;;;;;;;14.13;3.43;;;5.00;99.90;;;;;;5032251;28;20166;-80
2022/03/20 06:42:39;;;;;;;14.03;2.77;;;5.00;99.90;;;;;;5032244;28;20182;-80
2022/03/20 06:45:08;;;;;;;14.37;3.10;;;5.00;99.90;;;;;;5014341;28;20495;-81
2022/03/20 06:47:35;;;;;;;13.03;3.03;;;5.10;99.90;;;;;;5031693;28;20271;-79
2022/03/20 06:50:02;;;;;;;11.57;2.87;;;5.00;99.90;;;;;;5031696;28;20205;-79
2022/03/20 06:52:28;;;;;;;10.37;2.77;;;5.00;99.90;;;;;;5031778;28;20174;-79
2022/03/20 06:54:58;;;;;;;11.00;2.70;;;5.10;99.90;;;;;;5031577;28;20220;-80
2022/03/20 06:57:25;;;;;;;10.37;3.30;;;5.10;99.90;;;;;;5032018;28;20186;-79
2022/03/20 06:59:52;;;;;;;11.80;3.40;;;5.10;99.90;;;;;;5031812;28;20178;-80
2022/03/20 07:02:19;;;;;;;11.27;3.17;;;5.20;99.90;;;;;;5031679;28;20182;-80
2022/03/20 07:04:47;;;;;;;9.50;3.03;;;5.10;99.90;;;;;;5031522;28;20185;-81
2022/03/20 07:07:17;;;;;;;9.33;2.77;;;5.20;99.90;;;;;;5031690;28;20569;-81
2022/03/20 07:09:43;;;;;;;11.10;2.93;;;5.20;99.90;;;;;;5031654;28;20249;-78
2022/03/20 07:12:11;;;;;;;11.60;2.97;;;5.30;99.90;;;;;;5031205;28;20216;-77
2022/03/20 07:14:38;;;;;;;10.57;2.87;;;5.30;99.90;;;;;;5031322;28;20192;-78
2022/03/20 07:17:09;;;;;;;10.83;3.20;;;5.40;99.90;;;;;;5031342;28;20166;-77
2022/03/20 07:19:39;;;;;;;13.63;2.87;;;5.50;99.90;;;;;;5031108;28;20188;-77
2022/03/20 07:22:06;;;;;;;9.33;2.87;;;5.50;99.90;;;;;;5031346;28;20260;-80
2022/03/20 07:24:40;;;;;;;11.27;3.27;;;5.60;99.90;;;;;;5031612;28;20178;-80
2022/03/20 07:29:50;;;;;;;14.30;3.17;;;5.60;99.90;;;;;;5031381;28;20208;-81
2022/03/20 07:32:17;;;;;;;10.57;2.90;;;5.70;99.90;;;;;;5031191;28;20678;-80
2022/03/20 07:34:45;;;;;;;11.50;3.17;;;5.80;99.90;;;;;;5031275;28;20656;-80
2022/03/20 07:37:16;;;;;;;8.70;2.77;;;5.80;99.90;;;;;;5031155;28;20612;-80
2022/03/20 07:39:47;;;;;;;9.23;2.83;;;5.80;99.90;;;;;;5030860;28;20182;-80
2022/03/20 07:42:13;;;;;;;10.50;2.97;;;5.90;99.90;;;;;;5030914;28;20178;-75
2022/03/20 07:44:39;;;;;;;9.97;2.80;;;6.00;99.90;;;;;;5029924;28;20648;-68
2022/03/20 07:47:08;;;;;;;11.30;2.73;;;5.90;99.90;;;;;;5012251;28;20180;-70
2022/03/20 07:49:37;;;;;;;9.50;3.10;;;5.90;99.90;;;;;;5030751;28;20217;-70
2022/03/20 07:52:04;;;;;;;16.80;3.23;;;5.90;99.90;;;;;;5030832;28;20192;-70
2022/03/20 07:54:30;;;;;;;18.20;3.33;;;6.10;99.90;;;;;;5030377;28;20583;-71
2022/03/20 07:56:56;;;;;;;13.10;3.33;;;6.20;99.90;;;;;;5030655;28;20174;-69
2022/03/20 07:59:21;;;;;;;12.33;3.50;;;6.20;99.90;;;;;;5030991;28;20226;-69
2022/03/20 08:01:47;;;;;;;11.17;2.90;;;6.30;99.90;;;;;;5030738;28;20195;-70
2022/03/20 08:04:13;;;;;;;13.00;3.20;;;6.50;99.90;;;;;;5030623;28;20174;-69
2022/03/20 08:06:38;;;;;;;11.03;2.90;;;6.50;99.90;;;;;;5029489;28;20588;-66
2022/03/20 08:09:04;;;;;;;13.60;3.00;;;6.50;99.90;;;;;;5030013;28;20202;-76
2022/03/20 08:11:31;;;;;;;10.67;3.00;;;6.70;99.90;;;;;;5012712;28;20308;-77
2022/03/20 08:13:57;;;;;;;6.93;2.57;;;6.70;99.90;;;;;;5030755;28;20184;-76
2022/03/20 08:16:26;;;;;;;10.00;3.03;;;6.90;99.90;;;;;;5030617;28;20223;-77
2022/03/20 08:18:56;;;;;;;10.37;2.90;;;7.00;99.90;;;;;;5030461;28;20182;-78
2022/03/20 08:21:22;;;;;;;13.73;3.13;;;6.90;99.90;;;;;;5030271;28;20180;-79
2022/03/20 08:23:48;;;;;;;11.33;2.77;;;7.00;99.90;;;;;;5031193;28;20208;-78
2022/03/20 08:26:14;;;;;;;14.47;3.10;;;7.10;99.90;;;;;;5012445;28;20182;-78
2022/03/20 08:28:42;;;;;;;13.63;3.87;;;7.30;99.90;;;;;;5030715;28;20201;-78
2022/03/20 08:31:08;;;;;;;9.00;2.63;;;7.50;99.90;;;;;;5014412;28;20181;-77
2022/03/20 08:33:35;;;;;;;14.93;3.07;;;7.70;99.90;;;;;;5030606;28;20181;-78
2022/03/20 08:36:02;;;;;;;9.27;3.33;;;7.80;99.90;;;;;;5034769;28;20170;-79
2022/03/20 08:38:28;;;;;;;11.00;3.17;;;7.60;99.90;;;;;;5030156;28;20588;-66
2022/03/20 08:40:54;;;;;;;13.87;3.30;;;7.80;99.90;;;;;;5027467;28;20261;-65
2022/03/20 08:43:21;;;;;;;11.07;3.53;;;8.20;99.90;;;;;;5012932;28;20170;-64
2022/03/20 08:45:49;;;;;;;9.80;2.80;;;8.70;99.90;;;;;;5031120;28;20173;-67
2022/03/20 08:48:15;;;;;;;12.97;2.97;;;10.20;99.90;;;;;;5030200;28;20188;-68
2022/03/20 08:50:44;;;;;;;9.03;2.93;;;12.60;99.90;;;;;;5028915;28;20218;-65
2022/03/20 08:53:10;;;;;;;8.93;2.60;;;14.10;99.90;;;;;;5029893;28;20196;-67
2022/03/20 08:55:36;;;;;;;9.23;2.90;;;13.60;99.90;;;;;;5012039;28;20222;-63
2022/03/20 08:58:04;;;;;;;9.10;2.97;;;10.90;99.90;;;;;;5032538;28;20166;-63
2022/03/20 09:00:32;;;;;;;11.60;3.20;;;11.30;99.90;;;;;;5015905;28;20206;-63
2022/03/20 09:02:58;;;;;;;7.90;3.15;;;11.50;99.90;;;;;;5016503;28;20188;-67
2022/03/20 09:05:24;;;;;;;7.70;2.97;;;12.90;99.90;;;;;;5033394;28;20170;-64
2022/03/20 09:07:50;;;;;;;10.32;3.33;;;13.70;99.90;;;;;;5015814;28;20223;-63
2022/03/20 09:10:17;;;;;;;10.20;3.45;;;13.40;99.90;;;;;;5032006;28;20734;-64
2022/03/20 09:12:43;;;;;;;10.95;3.20;;;13.60;99.90;;;;;;5033459;28;20182;-66
2022/03/20 09:15:13;;;;;;;11.93;3.28;;;15.80;99.90;;;;;;5033736;28;20173;-68
2022/03/20 09:20:29;;;;;;;11.52;3.55;;;16.50;99.90;;;;;;5032413;28;20173;-70
2022/03/20 09:22:55;;;;;;;10.05;3.30;;;16.90;99.90;;;;;;5015721;28;20162;-70
2022/03/20 09:25:21;;;;;;;12.13;3.70;;;17.60;99.90;;;;;;5031833;28;20178;-71
2022/03/20 09:27:48;;;;;;;9.10;3.58;;;15.90;99.90;;;;;;5033148;28;20170;-75
2022/03/20 09:30:18;;;;;;;10.65;3.78;;;17.70;99.90;;;;;;5015666;28;20206;-67
2022/03/20 09:33:37;;;;;;;9.77;3.40;;;14.50;99.90;;;;;;5033025;28;20249;-70
2022/03/20 09:39:26;;;;;;;8.55;3.30;;;15.70;99.90;;;;;;5032833;28;20538;-73
2022/03/20 09:41:55;;;;;;;10.40;3.75;;;18.10;99.90;;;;;;5031689;28;20190;-72
2022/03/20 09:44:25;;;;;;;9.77;3.58;;;19.60;99.90;;;;;;5032736;28;20256;-72
2022/03/20 09:46:51;;;;;;;9.93;4.00;;;18.60;99.90;;;;;;5032426;28;20176;-73
2022/03/20 09:49:19;;;;;;;8.45;3.40;;;17.00;99.90;;;;;;5032702;28;20213;-73
2022/03/20 09:51:45;;;;;;;9.95;3.67;;;16.50;99.90;;;;;;5032814;28;20204;-73
2022/03/20 09:54:13;;;;;;;10.52;3.70;;;18.30;99.90;;;;;;5032714;28;20201;-72
2022/03/20 09:56:42;;;;;;;8.15;3.42;;;19.00;99.90;;;;;;5032657;28;20312;-73
2022/03/20 09:59:10;;;;;;;9.30;4.07;;;18.50;99.90;;;;;;5033800;28;20182;-72
2022/03/20 10:01:36;;;;;;;9.55;3.50;;;18.40;99.90;;;;;;4998537;28;20182;-72
2022/03/20 10:04:13;;;;;;;9.70;4.03;;;18.20;99.90;;;;;;5032348;28;20181;-73
2022/03/20 10:06:41;;;;;;;8.77;4.20;;;18.20;99.90;;;;;;5032344;28;20269;-73
2022/03/20 10:09:11;;;;;;;9.43;3.95;;;16.80;99.90;;;;;;5032032;28;20209;-73
2022/03/20 10:11:50;;;;;;;9.38;3.83;;;17.30;99.90;;;;;;5032204;28;20223;-73
2022/03/20 10:14:18;;;;;;;9.68;4.00;;;18.60;99.90;;;;;;5014270;28;20198;-73
2022/03/20 10:17:06;;;;;;;9.82;3.80;;;16.70;99.90;;;;;;5032222;28;20609;-73
2022/03/20 10:19:33;;;;;;;8.68;4.28;;;16.30;99.90;;;;;;5019511;28;20205;-73
2022/03/20 10:22:03;;;;;;;10.32;4.10;;;17.90;99.90;;;;;;5029923;28;20213;-73
2022/03/20 10:24:31;;;;;;;10.10;4.03;;;17.80;99.90;;;;;;5030756;28;20177;-74
2022/03/20 10:26:59;;;;;;;10.25;4.60;;;20.10;99.90;;;;;;5011914;28;20174;-74
2022/03/20 10:29:26;;;;;;;12.30;4.60;;;19.40;99.90;;;;;;5030122;28;20703;-73
2022/03/20 10:31:53;;;;;;;9.00;3.88;;;19.30;99.90;;;;;;5030344;28;20174;-74
2022/03/20 10:34:20;;;;;;;11.55;4.57;;;19.30;99.90;;;;;;5031552;28;20637;-73
2022/03/20 10:36:48;;;;;;;14.07;4.53;;;18.90;99.90;;;;;;5031855;28;20174;-73
2022/03/20 10:39:19;;;;;;;10.82;4.78;;;19.10;99.80;;;;;;5013924;28;20166;-73
2022/03/20 10:41:52;;;;;;;9.18;4.65;;;18.80;99.90;;;;;;5031433;28;20174;-74
2022/03/20 10:44:25;;;;;;;7.95;4.45;;;19.20;99.90;;;;;;5028435;28;20280;-73
2022/03/20 10:47:10;;;;;;;11.20;4.40;;;20.50;99.10;;;;;;5034077;28;20269;-73
2022/03/20 10:49:36;;;;;;;13.13;4.82;;;18.50;99.50;;;;;;5031464;28;20710;-73
2022/03/20 10:52:13;;;;;;;9.95;5.13;;;18.50;99.90;;;;;;5031227;28;20548;-74
2022/03/20 10:54:43;;;;;;;8.35;4.25;;;18.90;99.80;;;;;;5031259;28;20201;-74
2022/03/20 10:57:11;;;;;;;11.50;4.55;;;19.10;99.90;;;;;;5031374;28;20184;-73
2022/03/20 10:59:38;;;;;;;9.07;4.90;;;18.30;98.30;;;;;;5012999;28;20511;-73
2022/03/20 11:02:37;;;;;;;8.65;4.75;;;17.50;99.40;;;;;;4838333;22;22955;-67
2022/03/20 11:05:04;;;;;;;9.70;4.28;;;18.70;99.40;;;;;;5065475;22;20220;-61
2022/03/20 11:07:30;;;;;;;7.90;4.20;;;19.30;97.10;;;;;;5071399;28;20259;-63
2022/03/20 11:09:56;;;;;;;10.65;4.28;;;18.10;97.50;;;;;;5071179;28;20730;-63
2022/03/20 11:12:29;;;;;;;8.50;4.53;;;18.40;98.60;;;;;;5071270;28;20239;-63
2022/03/20 11:14:59;;;;;;;12.63;4.60;;;18.10;98.70;;;;;;5061519;28;20181;-63
2022/03/20 11:17:35;;;;;;;7.53;4.93;;;16.50;98.80;;;;;;5071366;28;20230;-63
2022/03/20 11:20:02;;;;;;;10.90;5.10;;;16.70;98.80;;;;;;5065128;28;20180;-63
2022/03/20 11:22:29;;;;;;;9.10;4.47;;;16.90;99.10;;;;;;5049072;28;20181;-63
2022/03/20 11:24:56;;;;;;;10.05;4.53;;;18.00;97.00;;;;;;5046735;28;20169;-63
2022/03/20 11:27:26;;;;;;;9.82;4.70;;;18.30;96.90;;;;;;5051075;28;20219;-63
2022/03/20 11:30:05;;;;;;;9.10;4.75;;;19.10;97.80;;;;;;5066401;28;20560;-62
2022/03/20 11:32:32;;;;;;;8.23;4.60;;;19.40;96.00;;;;;;5070896;28;20246;-64
2022/03/20 11:34:58;;;;;;;7.55;4.32;;;19.80;95.40;;;;;;5065891;28;20174;-64
2022/03/20 11:37:47;;;;;;;7.70;4.97;;;21.30;95.00;;;;;;5069805;28;20249;-64
2022/03/20 11:40:25;;;;;;;8.90;5.00;;;20.70;92.80;;;;;;5070817;28;20183;-63
2022/03/20 11:43:15;;;;;;;9.25;5.38;;;19.60;94.00;;;;;;5070982;28;20184;-63
2022/03/20 11:46:01;;;;;;;8.95;5.10;;;18.80;95.10;;;;;;5051129;28;20181;-63
2022/03/20 11:48:27;;;;;;;10.35;5.55;;;18.80;95.50;;;;;;5060335;28;20176;-63
2022/03/20 11:50:53;;;;;;;11.38;5.80;;;19.70;95.00;;;;;;5070808;28;20681;-63
2022/03/20 11:53:28;;;;;;;10.75;5.47;;;19.80;95.50;;;;;;5070387;28;20214;-63
2022/03/20 11:55:54;;;;;;;9.18;5.43;;;19.50;95.60;;;;;;5067158;28;20169;-62
2022/03/20 11:58:24;;;;;;;13.02;6.60;;;19.70;95.30;;;;;;5050656;28;20658;-62
2022/03/20 12:01:07;;;;;;;10.90;6.18;;;17.70;95.60;;;;;;5050518;28;20232;-62
2022/03/20 12:04:03;;;;;;;10.77;6.30;;;17.90;96.50;;;;;;5055669;28;20299;-63
2022/03/20 12:06:49;;;;;;;11.77;6.20;;;16.90;96.90;;;;;;5070548;28;20538;-62
2022/03/20 12:09:40;;;;;;;10.88;6.80;;;17.90;98.40;;;;;;5070506;28;20303;-63
2022/03/20 12:12:46;;;;;;;13.43;6.57;;;19.10;98.10;;;;;;5070335;28;20306;-63
2022/03/20 12:15:12;;;;;;;11.65;6.53;;;21.10;97.30;;;;;;5048980;28;20188;-63
2022/03/20 12:18:04;;;;;;;9.95;6.50;;;20.60;94.90;;;;;;5070718;28;20177;-61
2022/03/20 12:20:49;;;;;;;11.35;6.90;;;18.20;95.90;;;;;;5070305;28;20712;-63
2022/03/20 12:23:38;;;;;;;11.23;6.38;;;17.50;95.80;;;;;;5070329;28;20641;-63
2022/03/20 12:26:37;;;;;;;10.05;5.63;;;17.50;96.60;;;;;;5052197;28;20489;-63
2022/03/20 12:29:28;;;;;;;10.18;6.03;;;17.70;95.10;;;;;;5065499;28;20181;-63
2022/03/20 12:31:58;;;;;;;15.43;6.95;;;18.10;96.70;;;;;;5072394;28;20172;-62
2022/03/20 12:34:25;;;;;;;12.82;6.45;;;18.30;95.00;;;;;;5073838;28;20181;-62
2022/03/20 12:36:52;;;;;;;18.33;7.13;;;19.00;95.20;;;;;;5073991;28;20248;-62
2022/03/20 12:39:55;;;;;;;10.57;7.05;;;17.50;95.10;;;;;;5074030;28;20195;-62
2022/03/20 12:42:24;;;;;;;12.57;7.18;;;17.40;95.90;;;;;;5073976;28;20235;-63
2022/03/20 12:44:52;;;;;;;15.70;7.40;;;18.00;96.50;;;;;;5074188;28;20254;-64
2022/03/20 12:47:20;;;;;;;11.45;6.82;;;18.30;95.60;;;;;;5074180;28;20203;-64
2022/03/20 12:49:54;;;;;;;15.75;7.35;;;17.80;95.60;;;;;;5073782;28;20168;-63
2022/03/20 12:52:22;;;;;;;13.18;7.22;;;18.50;96.30;;;;;;5073884;28;20233;-63
2022/03/20 12:54:56;;;;;;;10.30;7.10;;;18.60;95.60;;;;;;5055996;28;20169;-63
2022/03/20 12:57:44;;;;;;;16.50;6.85;;;18.80;95.00;;;;;;5073736;28;20661;-63
2022/03/20 13:00:36;;;;;;;10.90;6.45;;;18.90;94.80;;;;;;5073614;28;20227;-63
2022/03/20 13:03:04;;;;;;;12.00;6.50;;;19.40;93.90;;;;;;5073518;28;20255;-63
2022/03/20 13:05:34;;;;;;;15.98;7.03;;;17.30;94.00;;;;;;5055658;28;20273;-63
2022/03/20 13:08:00;;;;;;;14.20;6.95;;;18.00;95.40;;;;;;5073678;28;20286;-63
2022/03/20 13:10:32;;;;;;;10.93;7.13;;;18.20;95.90;;;;;;5073605;28;20198;-63
2022/03/20 13:13:01;;;;;;;10.95;6.45;;;18.20;96.10;;;;;;5073566;28;20260;-63
2022/03/20 13:15:33;;;;;;;10.40;6.68;;;19.50;96.30;;;;;;5073952;28;20169;-63
2022/03/20 13:18:01;;;;;;;14.55;6.68;;;18.80;96.10;;;;;;5073349;28;20177;-63
2022/03/20 13:20:29;;;;;;;17.08;7.22;;;17.90;97.10;;;;;;5073278;28;20212;-64
2022/03/20 13:22:56;;;;;;;10.13;6.25;;;19.60;97.30;;;;;;5073465;28;20223;-64
2022/03/20 13:25:24;;;;;;;11.32;7.18;;;18.90;96.40;;;;;;5073260;28;20165;-64
2022/03/20 13:27:51;;;;;;;12.20;6.90;;;18.80;95.50;;;;;;5069152;28;20259;-64
2022/03/20 13:30:19;;;;;;;10.82;6.35;;;18.90;95.20;;;;;;5061597;28;20177;-64